Nepomuceno, Brazil
Current Conditions -  °F | °C
As of 12:00 PM on Sunday 21 Dec 2014 (Local Time) from SBBQ Reporting Station
Broken Clouds Broken Clouds  
Wind Chill: 81°   Ceiling: 3500
Heat Index: 82°   Visibility: 6mi
Dew Point: 64°   Wind: 12mph
Humidity: 58%   Direction: 330°NNW
Pressure: 30.12"   Gusts: NA
Location:  21.24°S, 45.24°W
Report Text: SBBQ 211400Z 33010KT 9999 BKN035 FEW040TCU 27/18 Q1020
Loading
Personal Weather Stations






























Interactive Weather Map New forecast layout! Learn more

10-Day Weather Forecast

Advertisements
Track Severe Weather on mobile